createdAt,value
2022-12-13T00:00:28.737Z,-3.55
2022-12-13T00:01:31.877Z,-3.55
2022-12-13T00:02:28.629Z,-3.55
2022-12-13T00:03:28.949Z,-3.54
2022-12-13T00:04:31.555Z,-3.54
2022-12-13T00:05:28.767Z,-3.55
2022-12-13T00:06:29.190Z,-3.58
2022-12-13T00:07:28.658Z,-3.54
2022-12-13T00:08:32.149Z,-3.51
2022-12-13T00:09:28.381Z,-3.57
2022-12-13T00:10:29.857Z,-3.58
2022-12-13T00:11:29.252Z,-3.62
2022-12-13T00:12:28.607Z,-3.68
2022-12-13T00:13:28.187Z,-3.69
2022-12-13T00:14:31.539Z,-3.70
2022-12-13T00:15:28.848Z,-3.74
2022-12-13T00:16:28.225Z,-3.76
2022-12-13T00:17:28.628Z,-3.74
2022-12-13T00:18:28.038Z,-3.74
2022-12-13T00:19:28.448Z,-3.76
2022-12-13T00:20:27.786Z,-3.77
2022-12-13T00:21:28.187Z,-3.80
2022-12-13T00:22:28.603Z,-3.80
2022-12-13T00:23:27.958Z,-3.81
2022-12-13T00:24:29.569Z,-3.86
2022-12-13T00:25:28.737Z,-3.92
2022-12-13T00:26:28.187Z,-3.94
2022-12-13T00:27:29.577Z,-3.95
2022-12-13T00:28:29.076Z,-3.94
2022-12-13T00:29:28.402Z,-3.94
2022-12-13T00:30:27.831Z,-3.89
2022-12-13T00:32:29.683Z,-3.84
2022-12-13T00:33:28.031Z,-3.86
2022-12-13T00:34:29.481Z,-3.81
2022-12-13T00:35:28.862Z,-3.79
2022-12-13T00:36:28.246Z,-3.77
2022-12-13T00:37:28.678Z,-3.76
2022-12-13T00:38:28.070Z,-3.76
2022-12-13T00:39:28.464Z,-3.77
2022-12-13T00:40:27.835Z,-3.81
2022-12-13T00:41:28.332Z,-3.80
2022-12-13T00:42:30.778Z,-3.83
2022-12-13T00:43:28.051Z,-3.81
2022-12-13T00:44:30.573Z,-3.79
2022-12-13T00:45:59.167Z,-3.80
2022-12-13T00:46:28.393Z,-3.77
2022-12-13T00:47:27.792Z,-3.79
2022-12-13T00:48:28.154Z,-3.80
2022-12-13T00:49:28.554Z,-3.81
2022-12-13T00:50:27.932Z,-3.84
2022-12-13T00:51:59.643Z,-3.83
2022-12-13T00:52:27.827Z,-3.81
2022-12-13T00:53:28.202Z,-3.86
2022-12-13T00:55:08.212Z,-3.86
2022-12-13T00:55:28.033Z,-3.86
2022-12-13T00:56:27.412Z,-3.86
2022-12-13T00:57:29.009Z,-3.89
2022-12-13T00:58:30.373Z,-3.86
2022-12-13T00:59:27.697Z,-3.83
2022-12-13T01:00:31.276Z,-3.80
2022-12-13T01:01:27.734Z,-3.80
2022-12-13T01:02:32.738Z,-3.81
2022-12-13T01:03:30.584Z,-3.83
2022-12-13T01:04:42.413Z,-3.86
2022-12-13T01:06:04.086Z,-3.86
2022-12-13T01:06:29.738Z,-3.89
2022-12-13T01:07:28.117Z,-3.92
2022-12-13T01:08:27.660Z,-3.88
2022-12-13T01:09:31.139Z,-3.92
2022-12-13T01:10:30.488Z,-3.92
2022-12-13T01:11:27.844Z,-3.91
2022-12-13T01:12:29.218Z,-3.89
2022-12-13T01:13:42.446Z,-3.88
2022-12-13T01:14:30.170Z,-3.89
2022-12-13T01:15:42.072Z,-3.94
2022-12-13T01:16:27.962Z,-3.94
2022-12-13T01:17:27.323Z,-3.97
2022-12-13T01:18:28.202Z,-3.99
2022-12-13T01:19:27.653Z,-4.01
2022-12-13T01:20:28.049Z,-3.99
2022-12-13T01:21:27.468Z,-4.01
2022-12-13T01:22:27.906Z,-3.98
2022-12-13T01:23:27.292Z,-3.98
2022-12-13T01:24:27.753Z,-4.02
2022-12-13T01:25:27.152Z,-4.04
2022-12-13T01:26:27.592Z,-4.07
2022-12-13T01:27:26.993Z,-4.09
2022-12-13T01:28:27.442Z,-4.13
2022-12-13T01:29:27.863Z,-4.12
2022-12-13T01:30:27.302Z,-4.12
2022-12-13T01:31:27.719Z,-4.09
2022-12-13T01:32:27.083Z,-4.12
2022-12-13T01:33:30.638Z,-4.10
2022-12-13T01:34:27.945Z,-4.10
2022-12-13T01:35:42.367Z,-4.10
2022-12-13T01:36:42.313Z,-4.09
2022-12-13T01:37:27.129Z,-4.10
2022-12-13T01:38:28.610Z,-4.13
2022-12-13T01:39:42.532Z,-4.22
2022-12-13T01:40:38.466Z,-4.17
2022-12-13T01:41:29.101Z,-4.19
2022-12-13T01:42:26.842Z,-4.20
2022-12-13T01:43:27.274Z,-4.20
2022-12-13T01:44:27.687Z,-4.19
2022-12-13T01:45:28.122Z,-4.20
2022-12-13T01:46:29.546Z,-4.17
2022-12-13T01:47:28.021Z,-4.17
2022-12-13T01:48:29.313Z,-4.20
2022-12-13T01:49:30.869Z,-4.22
2022-12-13T01:50:41.765Z,-4.19
2022-12-13T01:51:42.172Z,-4.13
2022-12-13T01:52:26.974Z,-4.15
2022-12-13T01:53:34.727Z,-4.17
2022-12-13T01:54:46.582Z,-4.20
2022-12-13T01:55:28.281Z,-4.20
2022-12-13T01:56:42.221Z,-4.22
2022-12-13T01:57:26.678Z,-4.22
2022-12-13T01:58:41.700Z,-4.28
2022-12-13T01:59:28.560Z,-4.31
2022-12-13T02:00:26.926Z,-4.34
2022-12-13T02:01:30.548Z,-4.36
2022-12-13T02:02:28.833Z,-4.34
2022-12-13T02:03:27.198Z,-4.38
2022-12-13T02:04:29.553Z,-4.33
2022-12-13T02:05:27.128Z,-4.34
2022-12-13T02:06:26.479Z,-4.37
2022-12-13T02:07:26.913Z,-4.40
2022-12-13T02:08:27.430Z,-4.45
2022-12-13T02:09:26.757Z,-4.48
2022-12-13T02:10:27.352Z,-4.49
2022-12-13T02:11:26.603Z,-4.52
2022-12-13T02:12:41.652Z,-4.55
2022-12-13T02:13:42.067Z,-4.55
2022-12-13T02:14:26.859Z,-4.54
2022-12-13T02:15:27.316Z,-4.51
2022-12-13T02:16:26.809Z,-4.49
2022-12-13T02:17:27.168Z,-4.49
2022-12-13T02:18:42.208Z,-4.45
2022-12-13T02:19:27.017Z,-4.46
2022-12-13T02:20:42.138Z,-4.51
2022-12-13T02:21:26.797Z,-4.49
2022-12-13T02:22:41.845Z,-4.48
2022-12-13T02:23:26.687Z,-4.49
2022-12-13T02:24:27.112Z,-4.49
2022-12-13T02:25:28.427Z,-4.48
2022-12-13T02:26:27.047Z,-4.48
2022-12-13T02:27:30.329Z,-4.48
2022-12-13T02:28:31.779Z,-4.51
2022-12-13T02:29:30.303Z,-4.56
2022-12-13T02:30:27.646Z,-4.56
2022-12-13T02:31:26.174Z,-4.62
2022-12-13T02:32:26.679Z,-4.51
2022-12-13T02:33:27.059Z,-4.63
2022-12-13T02:34:26.448Z,-4.67
2022-12-13T02:35:26.888Z,-4.67
2022-12-13T02:36:26.327Z,-4.59
2022-12-13T02:37:26.818Z,-4.59
2022-12-13T02:38:26.237Z,-4.56
2022-12-13T02:39:30.120Z,-4.58
2022-12-13T02:40:28.131Z,-4.58
2022-12-13T02:41:26.603Z,-4.56
2022-12-13T02:42:27.098Z,-4.52
2022-12-13T02:43:33.817Z,-4.55
2022-12-13T02:44:27.958Z,-4.55
2022-12-13T02:45:27.743Z,-4.55
2022-12-13T02:46:26.891Z,-4.54
2022-12-13T02:47:26.285Z,-4.54
2022-12-13T02:48:29.963Z,-4.54
2022-12-13T02:49:28.299Z,-4.52
2022-12-13T02:50:26.717Z,-4.52
2022-12-13T02:51:33.417Z,-4.51
2022-12-13T02:52:27.648Z,-4.49
2022-12-13T02:53:27.082Z,-4.46
2022-12-13T02:54:26.542Z,-4.48
2022-12-13T02:55:29.067Z,-4.45
2022-12-13T02:56:26.432Z,-4.44
2022-12-13T02:57:25.852Z,-4.44
2022-12-13T02:58:40.953Z,-4.40
2022-12-13T02:59:34.181Z,-4.41
2022-12-13T03:00:26.264Z,-4.40
2022-12-13T03:01:41.438Z,-4.44
2022-12-13T03:02:40.853Z,-4.46
2022-12-13T03:03:27.749Z,-4.34
2022-12-13T03:04:28.071Z,-4.38
2022-12-13T03:05:33.793Z,-4.30
2022-12-13T03:06:25.852Z,-4.37
2022-12-13T03:07:27.312Z,-4.34
2022-12-13T03:08:26.831Z,-4.31
2022-12-13T03:09:40.799Z,-4.30
2022-12-13T03:10:26.662Z,-4.31
2022-12-13T03:11:28.197Z,-4.28
2022-12-13T03:12:26.542Z,-4.27
2022-12-13T03:13:41.575Z,-4.31
2022-12-13T03:14:40.987Z,-4.26
2022-12-13T03:15:25.787Z,-4.26
2022-12-13T03:16:26.267Z,-4.22
2022-12-13T03:17:27.152Z,-4.19
2022-12-13T03:18:26.101Z,-4.17
2022-12-13T03:19:32.802Z,-4.15
2022-12-13T03:20:33.281Z,-4.13
2022-12-13T03:21:32.671Z,-4.12
2022-12-13T03:22:26.868Z,-4.10
2022-12-13T03:23:26.372Z,-4.09
2022-12-13T03:24:26.732Z,-4.10
2022-12-13T03:25:31.838Z,-4.06
2022-12-13T03:26:26.544Z,-4.06
2022-12-13T03:27:26.932Z,-4.01
2022-12-13T03:28:28.592Z,-4.01
2022-12-13T03:29:25.869Z,-3.98
2022-12-13T03:30:25.557Z,-3.98
2022-12-13T03:31:26.053Z,-3.97
2022-12-13T03:32:25.382Z,-3.97
2022-12-13T03:33:25.841Z,-3.94
2022-12-13T03:34:26.312Z,-3.95
2022-12-13T03:35:34.272Z,-3.92
2022-12-13T03:36:27.183Z,-3.92
2022-12-13T03:37:25.579Z,-3.88
2022-12-13T03:38:26.017Z,-3.86
2022-12-13T03:39:26.526Z,-3.84
2022-12-13T03:40:25.904Z,-3.84
2022-12-13T03:41:26.362Z,-3.80
2022-12-13T03:42:25.742Z,-3.79
2022-12-13T03:43:26.212Z,-3.77
2022-12-13T03:44:25.312Z,-3.74
2022-12-13T03:45:52.848Z,-3.74
2022-12-13T03:46:26.267Z,-3.77
2022-12-13T03:47:25.622Z,-3.76
2022-12-13T03:48:27.120Z,-3.74
2022-12-13T03:49:25.453Z,-3.76
2022-12-13T03:50:28.404Z,-3.74
2022-12-13T03:51:32.656Z,-3.70
2022-12-13T03:52:25.777Z,-3.72
2022-12-13T03:53:33.611Z,-3.70
2022-12-13T03:54:26.623Z,-3.65
2022-12-13T03:55:32.342Z,-3.64
2022-12-13T03:56:25.484Z,-3.64
2022-12-13T03:57:26.062Z,-3.65
2022-12-13T03:58:25.387Z,-3.62
2022-12-13T03:59:33.112Z,-3.62
2022-12-13T04:00:32.527Z,-3.62
2022-12-13T04:01:31.955Z,-3.64
2022-12-13T04:02:31.174Z,-3.62
2022-12-13T04:03:32.802Z,-3.61
2022-12-13T04:04:32.192Z,-3.62
2022-12-13T04:05:26.356Z,-3.58
2022-12-13T04:06:31.256Z,-3.59
2022-12-13T04:07:26.196Z,-3.58
2022-12-13T04:08:32.986Z,-3.57
2022-12-13T04:09:27.125Z,-3.54
2022-12-13T04:10:26.785Z,-3.57
2022-12-13T04:11:34.283Z,-3.57
2022-12-13T04:12:25.371Z,-3.55
2022-12-13T04:13:26.877Z,-3.57
2022-12-13T04:14:31.490Z,-3.55
2022-12-13T04:15:31.896Z,-3.57
2022-12-13T04:16:25.210Z,-3.55
2022-12-13T04:17:26.507Z,-3.54
2022-12-13T04:18:32.187Z,-3.51
2022-12-13T04:19:32.926Z,-3.49
2022-12-13T04:20:32.046Z,-3.46
2022-12-13T04:21:32.489Z,-3.47
2022-12-13T04:22:31.904Z,-3.46
2022-12-13T04:23:32.346Z,-3.46
2022-12-13T04:24:30.898Z,-3.46
2022-12-13T04:25:33.270Z,-3.43
2022-12-13T04:26:25.383Z,-3.46
2022-12-13T04:27:24.807Z,-3.44
2022-12-13T04:28:27.246Z,-3.43
2022-12-13T04:29:25.771Z,-3.39
2022-12-13T04:30:26.102Z,-3.37
2022-12-13T04:31:25.609Z,-3.37
2022-12-13T04:32:26.749Z,-3.31
2022-12-13T04:33:25.427Z,-3.31
2022-12-13T04:34:26.466Z,-3.30
2022-12-13T04:35:25.289Z,-3.26
2022-12-13T04:36:30.852Z,-3.30
2022-12-13T04:37:26.196Z,-3.22
2022-12-13T04:38:26.548Z,-3.23
2022-12-13T04:39:26.067Z,-3.25
2022-12-13T04:40:26.452Z,-3.26
2022-12-13T04:41:24.853Z,-3.26
2022-12-13T04:42:26.338Z,-3.25
2022-12-13T04:43:26.781Z,-3.21
2022-12-13T04:44:32.632Z,-3.19
2022-12-13T04:45:25.585Z,-3.16
2022-12-13T04:46:24.552Z,-3.18
2022-12-13T04:47:25.062Z,-3.21
2022-12-13T04:48:31.374Z,-3.21
2022-12-13T04:49:25.494Z,-3.21
2022-12-13T04:50:24.975Z,-3.18
2022-12-13T04:51:25.428Z,-3.16
2022-12-13T04:52:26.473Z,-3.18
2022-12-13T04:53:25.271Z,-3.18
2022-12-13T04:54:24.871Z,-3.15
2022-12-13T04:55:26.145Z,-3.13
2022-12-13T04:56:25.473Z,-3.15
2022-12-13T04:57:25.417Z,-3.15
2022-12-13T04:58:24.886Z,-3.15
2022-12-13T04:59:24.271Z,-3.16
2022-12-13T05:00:24.716Z,-3.19
2022-12-13T05:01:25.472Z,-3.16
2022-12-13T05:02:24.961Z,-3.19
2022-12-13T05:03:24.287Z,-3.19
2022-12-13T05:04:30.557Z,-3.15
2022-12-13T05:05:26.152Z,-3.25
2022-12-13T05:06:26.205Z,-3.23
2022-12-13T05:07:24.983Z,-3.25
2022-12-13T05:08:24.479Z,-3.25
2022-12-13T05:09:24.822Z,-3.25
2022-12-13T05:10:34.090Z,-3.25
2022-12-13T05:11:25.653Z,-3.26
2022-12-13T05:12:25.111Z,-3.26
2022-12-13T05:13:24.496Z,-3.30
2022-12-13T05:14:26.077Z,-3.26
2022-12-13T05:15:25.284Z,-3.30
2022-12-13T05:16:24.989Z,-3.28
2022-12-13T05:17:26.168Z,-3.26
2022-12-13T05:19:18.412Z,-3.26
2022-12-13T05:19:30.968Z,-3.22
2022-12-13T05:20:25.927Z,-3.23
2022-12-13T05:21:25.991Z,-3.25
2022-12-13T05:22:25.508Z,-3.28
2022-12-13T05:23:24.837Z,-3.30
2022-12-13T05:24:24.221Z,-3.30
2022-12-13T05:25:24.697Z,-3.31
2022-12-13T05:26:25.402Z,-3.26
2022-12-13T05:27:26.768Z,-3.26
2022-12-13T05:28:27.664Z,-3.25
2022-12-13T05:29:24.421Z,-3.23
2022-12-13T05:30:24.871Z,-3.22
2022-12-13T05:31:25.311Z,-3.23
2022-12-13T05:32:24.736Z,-3.26
2022-12-13T05:33:25.216Z,-3.25
2022-12-13T05:34:24.596Z,-3.28
2022-12-13T05:35:24.090Z,-3.26
2022-12-13T05:36:24.414Z,-3.23
2022-12-13T05:37:25.371Z,-3.25
2022-12-13T05:38:24.287Z,-3.23
2022-12-13T05:39:29.190Z,-3.23
2022-12-13T05:40:25.161Z,-3.28
2022-12-13T05:41:24.611Z,-3.30
2022-12-13T05:42:24.027Z,-3.30
2022-12-13T05:43:24.484Z,-3.31
2022-12-13T05:44:24.857Z,-3.34
2022-12-13T05:45:24.322Z,-3.39
2022-12-13T05:46:24.783Z,-3.36
2022-12-13T05:47:24.167Z,-3.34
2022-12-13T05:48:25.060Z,-3.28
2022-12-13T05:49:24.012Z,-3.28
2022-12-13T05:50:24.419Z,-3.30
2022-12-13T05:51:24.882Z,-3.28
2022-12-13T05:52:30.628Z,-3.26
2022-12-13T05:53:30.821Z,-3.30
2022-12-13T05:54:25.242Z,-3.31
2022-12-13T05:55:24.600Z,-3.28
2022-12-13T05:56:24.961Z,-3.30
2022-12-13T05:57:24.443Z,-3.34
2022-12-13T05:58:23.872Z,-3.33
2022-12-13T05:59:24.296Z,-3.31
2022-12-13T06:00:29.918Z,-3.31
2022-12-13T06:01:25.192Z,-3.30
2022-12-13T06:02:24.814Z,-3.28
2022-12-13T06:03:24.196Z,-3.31
2022-12-13T06:04:24.540Z,-3.33
2022-12-13T06:05:24.026Z,-3.34
2022-12-13T06:06:24.409Z,-3.34
2022-12-13T06:07:23.826Z,-3.37
2022-12-13T06:08:25.582Z,-3.37
2022-12-13T06:09:23.708Z,-3.41
2022-12-13T06:10:24.191Z,-3.46
2022-12-13T06:11:31.955Z,-3.47
2022-12-13T06:12:31.463Z,-3.46
2022-12-13T06:13:32.316Z,-3.47
2022-12-13T06:14:24.866Z,-3.51
2022-12-13T06:15:24.537Z,-3.52
2022-12-13T06:16:24.460Z,-3.52
2022-12-13T06:17:24.132Z,-3.54
2022-12-13T06:18:23.567Z,-3.57
2022-12-13T06:19:30.228Z,-3.59
2022-12-13T06:20:24.937Z,-3.61
2022-12-13T06:21:23.826Z,-3.61
2022-12-13T06:22:24.256Z,-3.65
2022-12-13T06:23:26.767Z,-3.72
2022-12-13T06:24:27.216Z,-3.72
2022-12-13T06:25:31.219Z,-3.76
2022-12-13T06:26:24.941Z,-3.77
2022-12-13T06:27:24.433Z,-3.79
2022-12-13T06:28:23.818Z,-3.77
2022-12-13T06:29:25.824Z,-3.77
2022-12-13T06:30:23.652Z,-3.74
2022-12-13T06:31:24.102Z,-3.77
2022-12-13T06:32:23.502Z,-3.80
2022-12-13T06:33:23.956Z,-3.81
2022-12-13T06:34:23.336Z,-3.83
2022-12-13T06:35:29.154Z,-3.89
2022-12-13T06:36:24.247Z,-3.88
2022-12-13T06:37:23.707Z,-3.91
2022-12-13T06:38:32.067Z,-3.91
2022-12-13T06:39:24.882Z,-3.94
2022-12-13T06:40:25.096Z,-3.92
2022-12-13T06:41:26.478Z,-3.89
2022-12-13T06:42:25.016Z,-3.92
2022-12-13T06:43:23.492Z,-3.92
2022-12-13T06:44:24.301Z,-3.92
2022-12-13T06:45:23.685Z,-3.94
2022-12-13T06:46:24.725Z,-3.91
2022-12-13T06:47:31.227Z,-3.92
2022-12-13T06:48:24.668Z,-3.94
2022-12-13T06:49:24.057Z,-3.94
2022-12-13T06:50:25.211Z,-3.94
2022-12-13T06:51:33.250Z,-3.91
2022-12-13T06:52:24.366Z,-3.92
2022-12-13T06:53:24.757Z,-3.89
2022-12-13T06:54:23.211Z,-3.89
2022-12-13T06:55:24.371Z,-3.88
2022-12-13T06:56:23.136Z,-3.91
2022-12-13T06:57:23.571Z,-3.94
2022-12-13T06:58:23.037Z,-3.94
2022-12-13T06:59:24.379Z,-3.97
2022-12-13T07:00:27.228Z,-3.97
2022-12-13T07:01:25.092Z,-3.99
2022-12-13T07:02:26.098Z,-4.02
2022-12-13T07:03:23.231Z,-4.02
2022-12-13T07:04:29.252Z,-4.04
2022-12-13T07:05:24.017Z,-4.02
2022-12-13T07:06:23.470Z,-4.02
2022-12-13T07:07:22.927Z,-4.01
2022-12-13T07:08:23.353Z,-4.01
2022-12-13T07:09:23.858Z,-4.04
2022-12-13T07:10:23.250Z,-4.04
2022-12-13T07:11:23.712Z,-4.06
2022-12-13T07:12:23.117Z,-4.10
2022-12-13T07:13:23.547Z,-4.09
2022-12-13T07:14:22.962Z,-4.09
2022-12-13T07:15:23.405Z,-4.09
2022-12-13T07:16:22.952Z,-4.07
2022-12-13T07:17:32.295Z,-4.09
2022-12-13T07:18:23.712Z,-4.09
2022-12-13T07:19:24.767Z,-4.09
2022-12-13T07:20:23.603Z,-4.04
2022-12-13T07:21:23.049Z,-4.06
2022-12-13T07:22:23.698Z,-4.09
2022-12-13T07:23:24.526Z,-4.10
2022-12-13T07:24:23.332Z,-4.13
2022-12-13T07:25:28.074Z,-4.16
2022-12-13T07:26:26.253Z,-4.07
2022-12-13T07:27:22.562Z,-4.13
2022-12-13T07:28:23.123Z,-4.12
2022-12-13T07:29:24.437Z,-4.13
2022-12-13T07:30:23.851Z,-4.16
2022-12-13T07:31:24.679Z,-4.15
2022-12-13T07:32:22.792Z,-4.13
2022-12-13T07:33:23.246Z,-4.12
2022-12-13T07:34:22.648Z,-4.09
2022-12-13T07:35:23.117Z,-4.10
2022-12-13T07:36:23.703Z,-4.12
2022-12-13T07:37:29.797Z,-4.12
2022-12-13T07:38:24.522Z,-4.13
2022-12-13T07:39:37.486Z,-4.16
2022-12-13T07:40:23.328Z,-4.15
2022-12-13T07:41:24.007Z,-4.16
2022-12-13T07:42:23.141Z,-4.12
2022-12-13T07:43:23.667Z,-4.15
2022-12-13T07:44:23.216Z,-4.13
2022-12-13T07:45:22.442Z,-4.15
2022-12-13T07:46:32.885Z,-4.15
2022-12-13T07:47:24.536Z,-4.15
2022-12-13T07:48:23.723Z,-4.13
2022-12-13T07:49:23.242Z,-4.13
2022-12-13T07:50:24.971Z,-4.10
2022-12-13T07:51:23.127Z,-4.15
2022-12-13T07:52:23.441Z,-4.12
2022-12-13T07:53:23.901Z,-4.10
2022-12-13T07:54:22.371Z,-4.09
2022-12-13T07:55:23.135Z,-4.10
2022-12-13T07:56:23.196Z,-4.12
2022-12-13T07:57:22.662Z,-4.09
2022-12-13T07:58:23.127Z,-4.13
2022-12-13T07:59:28.614Z,-4.10
2022-12-13T08:00:24.046Z,-4.09
2022-12-13T08:01:23.517Z,-4.10
2022-12-13T08:02:22.846Z,-3.99
2022-12-13T08:03:25.152Z,-4.07
2022-12-13T08:04:22.733Z,-4.09
2022-12-13T08:05:26.601Z,-4.07
2022-12-13T08:06:22.596Z,-4.07
2022-12-13T08:07:23.024Z,-4.07
2022-12-13T08:08:23.498Z,-4.04
2022-12-13T08:09:23.892Z,-4.02
2022-12-13T08:10:23.312Z,-4.04
2022-12-13T08:11:23.717Z,-4.04
2022-12-13T08:12:22.496Z,-3.99
2022-12-13T08:13:22.784Z,-3.98
2022-12-13T08:14:23.112Z,-3.95
2022-12-13T08:15:22.477Z,-3.95
2022-12-13T08:16:27.634Z,-3.98
2022-12-13T08:17:23.758Z,-3.98
2022-12-13T08:18:24.817Z,-3.98
2022-12-13T08:19:22.255Z,-4.01
2022-12-13T08:20:22.740Z,-3.99
2022-12-13T08:21:52.608Z,-3.98
2022-12-13T08:22:24.427Z,-4.01
2022-12-13T08:23:22.712Z,-3.98
2022-12-13T08:24:22.534Z,-3.97
2022-12-13T08:25:21.868Z,-4.01
2022-12-13T08:26:22.302Z,-3.97
2022-12-13T08:27:22.861Z,-3.91
2022-12-13T08:28:23.348Z,-3.88
2022-12-13T08:29:34.820Z,-3.86
2022-12-13T08:30:23.359Z,-3.86
2022-12-13T08:31:24.596Z,-3.83
2022-12-13T08:32:21.890Z,-3.83
2022-12-13T08:33:23.548Z,-3.81
2022-12-13T08:34:22.771Z,-3.72
2022-12-13T08:35:22.172Z,-3.77
2022-12-13T08:36:22.608Z,-3.74
2022-12-13T08:37:22.976Z,-3.72
2022-12-13T08:38:23.521Z,-3.74
2022-12-13T08:39:23.202Z,-3.72
2022-12-13T08:40:24.360Z,-3.69
2022-12-13T08:41:22.842Z,-3.65
2022-12-13T08:42:24.128Z,-3.64
2022-12-13T08:43:24.844Z,-3.61
2022-12-13T08:44:23.977Z,-3.61
2022-12-13T08:45:25.947Z,-3.59
2022-12-13T08:46:22.834Z,-3.58
2022-12-13T08:47:24.317Z,-3.55
2022-12-13T08:48:23.226Z,-3.57
2022-12-13T08:49:23.314Z,-3.55
2022-12-13T08:50:21.511Z,-3.52
2022-12-13T08:51:27.318Z,-3.52
2022-12-13T08:52:23.361Z,-3.49
2022-12-13T08:53:28.145Z,-3.49
2022-12-13T08:54:31.102Z,-3.44
2022-12-13T08:55:31.494Z,-3.40
2022-12-13T08:56:23.082Z,-3.39
2022-12-13T08:57:22.533Z,-3.39
2022-12-13T08:58:21.878Z,-3.36
2022-12-13T08:59:23.242Z,-3.37
2022-12-13T09:00:22.736Z,-3.37
2022-12-13T09:01:23.207Z,-3.37
2022-12-13T09:02:22.772Z,-3.34
2022-12-13T09:03:23.355Z,-3.36
2022-12-13T09:04:31.656Z,-3.39
2022-12-13T09:05:32.978Z,-3.37
2022-12-13T09:06:25.374Z,-3.36
2022-12-13T09:07:23.647Z,-3.39
2022-12-13T09:08:25.356Z,-3.39
2022-12-13T09:09:23.553Z,-3.39
2022-12-13T09:10:27.293Z,-3.41
2022-12-13T09:11:36.629Z,-3.33
2022-12-13T09:12:30.256Z,-3.34
2022-12-13T09:13:31.593Z,-3.44
2022-12-13T09:14:23.521Z,-3.30
2022-12-13T09:15:23.569Z,-3.33
2022-12-13T09:16:23.081Z,-3.31
2022-12-13T09:17:24.671Z,-3.28
2022-12-13T09:18:23.891Z,-3.31
2022-12-13T09:19:25.505Z,-3.33
2022-12-13T09:20:28.671Z,-3.31
2022-12-13T09:21:31.064Z,-3.28
2022-12-13T09:22:33.746Z,-3.26
2022-12-13T09:23:24.707Z,-3.25
2022-12-13T09:24:24.670Z,-3.22
2022-12-13T09:25:23.920Z,-3.23
2022-12-13T09:26:25.175Z,-3.34
2022-12-13T09:27:27.490Z,-3.18
2022-12-13T09:28:21.047Z,-3.18
2022-12-13T09:29:21.462Z,-3.12
2022-12-13T09:30:22.892Z,-3.13
2022-12-13T09:31:22.375Z,-3.12
2022-12-13T09:32:24.845Z,-3.16
2022-12-13T09:33:30.758Z,-3.13
2022-12-13T09:34:22.562Z,-3.07
2022-12-13T09:35:22.923Z,-3.08
2022-12-13T09:36:21.362Z,-3.07
2022-12-13T09:37:23.179Z,-2.98
2022-12-13T09:38:22.108Z,-2.97
2022-12-13T09:39:21.587Z,-2.89
2022-12-13T09:40:25.994Z,-2.84
2022-12-13T09:41:28.780Z,-2.84
2022-12-13T09:42:22.921Z,-2.82
2022-12-13T09:43:32.008Z,-2.80
2022-12-13T09:44:31.590Z,-2.80
2022-12-13T09:45:31.751Z,-2.76
2022-12-13T09:46:23.647Z,-2.72
2022-12-13T09:47:24.451Z,-2.69
2022-12-13T09:48:23.160Z,-2.65
2022-12-13T09:49:23.028Z,-2.61
2022-12-13T09:50:25.241Z,-2.56
2022-12-13T09:51:29.959Z,-2.56
2022-12-13T09:52:22.526Z,-2.53
2022-12-13T09:53:24.643Z,-2.51
2022-12-13T09:54:21.789Z,-2.47
2022-12-13T09:55:24.342Z,-2.41
2022-12-13T09:56:22.601Z,-2.40
2022-12-13T09:57:32.348Z,-2.35
2022-12-13T09:58:25.895Z,-2.28
2022-12-13T09:59:22.967Z,-2.29
2022-12-13T10:00:21.326Z,-2.25
2022-12-13T10:01:24.831Z,-2.22
2022-12-13T10:02:35.780Z,-2.24
2022-12-13T10:03:23.047Z,-2.22
2022-12-13T10:04:20.961Z,-2.21
2022-12-13T10:05:34.218Z,-2.16
2022-12-13T10:06:22.576Z,-2.14
2022-12-13T10:07:24.242Z,-2.14
2022-12-13T10:08:22.468Z,-2.11
2022-12-13T10:09:22.997Z,-2.08
2022-12-13T10:10:22.256Z,-2.06
2022-12-13T10:11:22.758Z,-2.00
2022-12-13T10:12:22.104Z,-1.93
2022-12-13T10:13:23.945Z,-1.86
2022-12-13T10:14:24.287Z,-1.61
2022-12-13T10:15:22.194Z,-1.80
2022-12-13T10:16:24.365Z,-1.75
2022-12-13T10:17:24.088Z,-1.71
2022-12-13T10:18:21.387Z,-1.74
2022-12-13T10:19:29.407Z,-1.67
2022-12-13T10:20:22.147Z,-1.65
2022-12-13T10:21:22.547Z,-1.57
2022-12-13T10:22:20.877Z,-1.54
2022-12-13T10:23:38.665Z,-1.50
2022-12-13T10:24:29.062Z,-1.50
2022-12-13T10:25:22.002Z,-1.49
2022-12-13T10:26:24.338Z,-1.38
2022-12-13T10:27:23.912Z,-1.46
2022-12-13T10:28:21.157Z,-1.43
2022-12-13T10:29:23.659Z,-1.44
2022-12-13T10:30:27.720Z,-1.44
2022-12-13T10:31:21.369Z,-1.46
2022-12-13T10:32:23.944Z,-1.47
2022-12-13T10:33:24.166Z,-1.43
2022-12-13T10:34:21.447Z,-1.36
2022-12-13T10:35:20.878Z,-1.32
2022-12-13T10:36:26.430Z,-1.29
2022-12-13T10:37:21.651Z,-1.23
2022-12-13T10:38:23.218Z,-1.18
2022-12-13T10:39:21.429Z,-1.10
2022-12-13T10:40:32.032Z,-1.03
2022-12-13T10:41:21.212Z,-1.02
2022-12-13T10:42:26.856Z,-1.00
2022-12-13T10:43:22.555Z,-1.03
2022-12-13T10:44:21.507Z,-1.05
2022-12-13T10:45:23.373Z,-1.00
2022-12-13T10:46:25.423Z,-1.00
2022-12-13T10:47:23.638Z,-0.99
2022-12-13T10:48:23.043Z,-1.00
2022-12-13T10:49:24.011Z,-1.00
2022-12-13T10:50:22.863Z,-1.00
2022-12-13T10:51:20.150Z,-0.99
2022-12-13T10:52:31.258Z,-0.96
2022-12-13T10:53:23.208Z,-0.92
2022-12-13T10:54:26.640Z,-0.83
2022-12-13T10:55:23.897Z,-0.81
2022-12-13T10:56:23.075Z,-0.71
2022-12-13T10:57:26.763Z,-0.68
2022-12-13T10:58:21.957Z,-0.65
2022-12-13T10:59:27.657Z,-0.70
2022-12-13T11:00:22.710Z,-0.67
2022-12-13T11:01:23.265Z,-0.62
2022-12-13T11:02:22.574Z,-0.56
2022-12-13T11:03:22.579Z,-0.53
2022-12-13T11:04:27.136Z,-0.55
2022-12-13T11:05:23.145Z,-0.56
2022-12-13T11:06:23.073Z,-0.52
2022-12-13T11:07:20.363Z,-0.52
2022-12-13T11:08:23.418Z,-0.50
2022-12-13T11:09:23.005Z,-0.47
2022-12-13T11:10:25.295Z,-0.42
2022-12-13T11:11:24.067Z,-0.37
2022-12-13T11:12:21.332Z,-0.31
2022-12-13T11:13:20.940Z,-0.31
2022-12-13T11:14:20.992Z,-0.30
2022-12-13T11:15:23.335Z,-0.34
2022-12-13T11:16:22.951Z,-0.31
2022-12-13T11:17:22.176Z,-0.32
2022-12-13T11:18:23.155Z,-0.27
2022-12-13T11:19:20.870Z,-0.30
2022-12-13T11:20:22.339Z,-0.21
2022-12-13T11:21:21.632Z,-0.21
2022-12-13T11:22:19.993Z,-0.19
2022-12-13T11:23:26.711Z,-0.21
2022-12-13T11:24:23.024Z,-0.20
2022-12-13T11:25:34.741Z,-0.20
2022-12-13T11:26:24.295Z,-0.19
2022-12-13T11:27:20.812Z,-0.14
2022-12-13T11:28:26.350Z,-0.08
2022-12-13T11:29:21.761Z,-0.02
2022-12-13T11:30:19.962Z,-0.03
2022-12-13T11:31:21.474Z,0.02
2022-12-13T11:32:23.217Z,0.10
2022-12-13T11:33:20.028Z,-0.01
2022-12-13T11:34:20.447Z,-0.03
2022-12-13T11:35:59.413Z,-0.17
2022-12-13T11:36:20.201Z,-0.19
2022-12-13T11:37:19.552Z,-0.20
2022-12-13T11:38:23.596Z,-0.23
2022-12-13T11:39:26.869Z,-0.19
2022-12-13T11:40:21.951Z,-0.21
2022-12-13T11:41:32.620Z,-0.17
2022-12-13T11:42:20.681Z,-0.13
2022-12-13T11:43:21.068Z,-0.03
2022-12-13T11:44:21.466Z,-0.01
2022-12-13T11:45:50.100Z,0.02
2022-12-13T11:46:20.329Z,0.04
2022-12-13T11:47:19.717Z,0.02
2022-12-13T11:48:34.632Z,0.04
2022-12-13T11:49:21.478Z,0.05
2022-12-13T11:50:33.233Z,0.02
2022-12-13T11:51:24.226Z,0.02
2022-12-13T11:52:22.482Z,0.05
2022-12-13T11:53:19.834Z,0.08
2022-12-13T11:54:23.661Z,0.07
2022-12-13T11:55:22.691Z,0.02
2022-12-13T11:56:20.882Z,0.04
2022-12-13T11:57:22.413Z,0.10
2022-12-13T11:58:45.813Z,0.17
2022-12-13T11:59:26.865Z,0.25
2022-12-13T12:00:33.893Z,0.31
2022-12-13T12:01:21.652Z,0.30
2022-12-13T12:02:21.146Z,0.26
2022-12-13T12:03:22.675Z,0.37
2022-12-13T12:04:20.725Z,0.33
2022-12-13T12:05:20.162Z,0.30
2022-12-13T12:06:19.477Z,0.34
2022-12-13T12:07:32.903Z,0.33
2022-12-13T12:08:31.689Z,0.30
2022-12-13T12:09:23.718Z,0.31
2022-12-13T12:10:23.013Z,0.25
2022-12-13T12:11:22.257Z,0.26
2022-12-13T12:12:22.048Z,0.33
2022-12-13T12:13:22.053Z,0.38
2022-12-13T12:14:22.441Z,0.41
2022-12-13T12:15:26.638Z,0.43
2022-12-13T12:16:20.226Z,0.51
2022-12-13T12:17:22.516Z,0.56
2022-12-13T12:18:20.747Z,0.62
2022-12-13T12:19:21.111Z,0.62
2022-12-13T12:20:24.200Z,0.57
2022-12-13T12:21:20.811Z,0.64
2022-12-13T12:22:20.258Z,0.63
2022-12-13T12:23:20.541Z,0.64
2022-12-13T12:24:21.932Z,0.56
2022-12-13T12:25:21.422Z,0.52
2022-12-13T12:26:20.708Z,0.52
2022-12-13T12:27:22.770Z,0.53
2022-12-13T12:28:22.682Z,0.57
2022-12-13T12:29:21.671Z,0.62
2022-12-13T12:30:26.391Z,0.63
2022-12-13T12:31:20.450Z,0.60
2022-12-13T12:32:18.692Z,0.60
2022-12-13T12:33:26.334Z,0.57
2022-12-13T12:34:27.678Z,0.59
2022-12-13T12:35:20.692Z,0.60
2022-12-13T12:36:22.216Z,0.67
2022-12-13T12:37:21.445Z,0.62
2022-12-13T12:38:20.779Z,0.60
2022-12-13T12:39:26.554Z,0.53
2022-12-13T12:40:20.464Z,0.48
2022-12-13T12:41:34.662Z,0.48
2022-12-13T12:42:21.226Z,0.37
2022-12-13T12:43:19.490Z,0.30
2022-12-13T12:44:34.437Z,0.23
2022-12-13T12:46:22.850Z,0.16
2022-12-13T12:47:48.013Z,0.10
2022-12-13T12:49:21.672Z,0.05
2022-12-13T12:50:21.041Z,-0.02
2022-12-13T12:51:19.252Z,-0.02
2022-12-13T12:52:20.582Z,-0.13
2022-12-13T12:53:20.347Z,-0.14
2022-12-13T12:54:20.246Z,-0.16
2022-12-13T12:55:20.636Z,-0.20
2022-12-13T12:56:20.058Z,-0.26
2022-12-13T12:57:19.457Z,-0.26